createdAt,value
2023-02-11T00:00:07.644Z,33.60
2023-02-11T00:01:12.314Z,34.75
2023-02-11T00:02:13.918Z,36.83
2023-02-11T00:03:15.650Z,33.67
2023-02-11T00:04:17.402Z,33.80
2023-02-11T00:05:19.931Z,33.03
2023-02-11T00:06:22.423Z,33.88
2023-02-11T00:07:23.994Z,35.08
2023-02-11T00:08:26.001Z,35.53
2023-02-11T00:09:28.899Z,31.75
2023-02-11T00:10:31.978Z,34.70
2023-02-11T00:11:34.381Z,33.55
2023-02-11T00:12:37.623Z,35.45
2023-02-11T00:13:39.198Z,34.70
2023-02-11T00:14:41.080Z,34.10
2023-02-11T00:15:42.647Z,37.95
2023-02-11T00:16:44.298Z,32.15
2023-02-11T00:17:45.905Z,32.00
2023-02-11T00:18:48.380Z,33.85
2023-02-11T00:19:51.425Z,33.13
2023-02-11T00:20:53.010Z,33.33
2023-02-11T00:21:54.589Z,33.58
2023-02-11T00:22:56.140Z,33.08
2023-02-11T00:23:59.937Z,34.05
2023-02-11T00:25:01.840Z,31.90
2023-02-11T00:26:04.478Z,32.85
2023-02-11T00:27:06.050Z,35.97
2023-02-11T00:28:10.909Z,35.28
2023-02-11T00:29:16.563Z,34.17
2023-02-11T00:30:20.117Z,35.40
2023-02-11T00:31:24.555Z,34.22
2023-02-11T00:32:27.188Z,32.60
2023-02-11T00:33:28.895Z,33.35
2023-02-11T00:34:33.960Z,33.72
2023-02-11T00:35:39.054Z,31.42
2023-02-11T00:36:41.200Z,32.85
2023-02-11T00:37:43.732Z,31.05
2023-02-11T00:38:46.270Z,35.10
2023-02-11T00:39:50.453Z,32.78
2023-02-11T00:40:52.036Z,33.25
2023-02-11T00:41:56.656Z,35.70
2023-02-11T00:42:58.312Z,33.40
2023-02-11T00:44:01.044Z,32.65
2023-02-11T00:45:04.164Z,32.33
2023-02-11T00:46:06.638Z,32.25
2023-02-11T00:47:08.267Z,32.95
2023-02-11T00:48:10.075Z,33.58
2023-02-11T00:49:11.729Z,34.38
2023-02-11T00:50:13.806Z,34.03
2023-02-11T00:51:15.557Z,31.77
2023-02-11T00:52:19.694Z,33.88
2023-02-11T00:53:22.728Z,32.90
2023-02-11T00:54:24.852Z,30.15
2023-02-11T00:55:26.452Z,29.45
2023-02-11T00:56:29.467Z,29.93
2023-02-11T00:57:31.074Z,30.65
2023-02-11T00:58:34.293Z,30.55
2023-02-11T00:59:36.035Z,30.15
2023-02-11T01:00:37.640Z,30.40
2023-02-11T01:01:39.999Z,31.35
2023-02-11T01:02:41.713Z,30.45
2023-02-11T01:03:43.323Z,30.35
2023-02-11T01:04:44.867Z,27.52
2023-02-11T01:05:46.747Z,30.15
2023-02-11T01:06:48.298Z,29.27
2023-02-11T01:07:49.960Z,29.85
2023-02-11T01:08:51.586Z,28.52
2023-02-11T01:09:54.123Z,29.58
2023-02-11T01:11:00.604Z,29.42
2023-02-11T01:12:04.388Z,30.30
2023-02-11T01:13:06.765Z,30.27
2023-02-11T01:14:08.781Z,30.15
2023-02-11T01:15:14.521Z,27.33
2023-02-11T01:16:17.038Z,27.73
2023-02-11T01:17:18.651Z,29.10
2023-02-11T01:18:20.758Z,30.95
2023-02-11T01:19:22.358Z,29.55
2023-02-11T01:20:27.423Z,28.08
2023-02-11T01:21:29.851Z,28.65
2023-02-11T01:22:31.479Z,29.40
2023-02-11T01:23:35.853Z,30.98
2023-02-11T01:24:38.907Z,30.13
2023-02-11T01:25:40.872Z,28.00
2023-02-11T01:26:43.787Z,27.55
2023-02-11T01:27:45.783Z,31.20
2023-02-11T01:28:47.663Z,27.80
2023-02-11T01:29:49.222Z,30.20
2023-02-11T01:30:51.999Z,30.17
2023-02-11T01:31:53.658Z,28.05
2023-02-11T01:32:55.299Z,30.65
2023-02-11T01:33:56.899Z,29.55
2023-02-11T01:34:58.476Z,26.83
2023-02-11T01:36:03.473Z,29.90
2023-02-11T01:37:05.032Z,32.28
2023-02-11T01:38:08.112Z,27.83
2023-02-11T01:39:11.202Z,28.27
2023-02-11T01:40:16.784Z,27.73
2023-02-11T01:41:18.373Z,28.75
2023-02-11T01:42:22.691Z,27.80
2023-02-11T01:43:26.010Z,30.40
2023-02-11T01:44:36.876Z,28.73
2023-02-11T01:45:53.641Z,27.85
2023-02-11T01:46:56.482Z,27.35
2023-02-11T01:48:02.726Z,31.13
2023-02-11T01:49:07.341Z,30.52
2023-02-11T01:50:09.037Z,29.58
2023-02-11T01:51:21.249Z,31.58
2023-02-11T01:52:37.136Z,30.13
2023-02-11T01:53:57.434Z,30.75
2023-02-11T01:55:21.976Z,30.23
2023-02-11T01:56:47.425Z,30.13
2023-02-11T01:57:56.403Z,28.73
2023-02-11T01:59:07.598Z,30.70
2023-02-11T02:00:12.071Z,29.23
2023-02-11T02:01:18.365Z,32.33
2023-02-11T02:02:25.297Z,29.63
2023-02-11T02:03:31.846Z,30.50
2023-02-11T02:04:42.332Z,30.77
2023-02-11T02:06:00.220Z,28.85
2023-02-11T02:07:20.023Z,29.58
2023-02-11T02:08:25.607Z,28.70
2023-02-11T02:09:32.404Z,30.55
2023-02-11T02:10:36.688Z,30.65
2023-02-11T02:11:38.521Z,29.67
2023-02-11T02:12:41.404Z,31.13
2023-02-11T02:13:43.128Z,29.67
2023-02-11T02:14:44.767Z,31.53
2023-02-11T02:15:52.719Z,29.92
2023-02-11T02:16:54.651Z,28.35
2023-02-11T02:18:06.815Z,29.85
2023-02-11T02:20:03.319Z,30.50
2023-02-11T02:21:31.015Z,32.30
2023-02-11T02:23:03.605Z,31.13
2023-02-11T02:24:47.633Z,30.30
2023-02-11T02:25:58.347Z,30.15
2023-02-11T02:27:26.538Z,32.83
2023-02-11T02:29:01.214Z,32.53
2023-02-11T02:30:41.501Z,31.30
2023-02-11T02:32:10.826Z,30.05
2023-02-11T02:33:23.002Z,29.42
2023-02-11T02:34:58.405Z,30.10
2023-02-11T02:36:03.077Z,30.08
2023-02-11T02:37:15.949Z,31.98
2023-02-11T02:38:46.755Z,31.03
2023-02-11T02:39:50.393Z,29.83
2023-02-11T02:40:59.041Z,28.50
2023-02-11T02:42:02.222Z,31.85
2023-02-11T02:43:04.956Z,29.77
2023-02-11T02:44:10.010Z,28.55
2023-02-11T02:45:13.731Z,29.15
2023-02-11T02:46:28.999Z,28.33
2023-02-11T02:47:30.590Z,28.30
2023-02-11T02:48:35.854Z,27.85
2023-02-11T02:49:37.420Z,29.55
2023-02-11T02:50:39.090Z,26.73
2023-02-11T02:51:52.840Z,28.95
2023-02-11T02:53:20.411Z,29.73
2023-02-11T02:54:49.333Z,31.05
2023-02-11T02:56:07.682Z,32.58
2023-02-11T02:57:30.680Z,29.48
2023-02-11T02:58:49.059Z,28.85
2023-02-11T03:00:04.022Z,28.45
2023-02-11T03:01:41.030Z,28.57
2023-02-11T03:03:00.200Z,29.42
2023-02-11T03:04:10.709Z,30.98
2023-02-11T03:05:26.743Z,29.45
2023-02-11T03:06:53.486Z,30.08
2023-02-11T03:08:03.056Z,32.00
2023-02-11T03:09:11.077Z,32.55
2023-02-11T03:10:22.678Z,27.75
2023-02-11T03:11:26.313Z,32.83
2023-02-11T03:12:30.970Z,29.27
2023-02-11T03:13:35.732Z,28.52
2023-02-11T03:14:38.855Z,29.42
2023-02-11T03:15:47.844Z,29.60
2023-02-11T03:16:52.276Z,30.60
2023-02-11T03:17:59.367Z,28.63
2023-02-11T03:19:06.157Z,29.20
2023-02-11T03:20:12.503Z,28.83
2023-02-11T03:21:17.628Z,30.52
2023-02-11T03:22:41.342Z,30.20
2023-02-11T03:23:58.045Z,28.50
2023-02-11T03:25:01.907Z,31.38
2023-02-11T03:26:14.944Z,30.00
2023-02-11T03:27:29.201Z,30.63
2023-02-11T03:29:14.846Z,31.13
2023-02-11T03:30:30.850Z,30.80
2023-02-11T03:32:01.573Z,30.05
2023-02-11T03:33:20.091Z,31.67
2023-02-11T03:34:46.518Z,29.80
2023-02-11T03:35:58.667Z,29.35
2023-02-11T03:37:08.547Z,29.60
2023-02-11T03:38:17.564Z,28.75
2023-02-11T03:39:26.948Z,29.67
2023-02-11T03:40:35.421Z,29.48
2023-02-11T03:41:40.202Z,29.67
2023-02-11T03:42:47.655Z,28.92
2023-02-11T03:43:54.724Z,29.60
2023-02-11T03:45:04.134Z,29.13
2023-02-11T03:46:07.678Z,29.88
2023-02-11T03:47:12.711Z,29.98
2023-02-11T03:48:26.612Z,29.90
2023-02-11T03:49:29.952Z,30.70
2023-02-11T03:50:34.599Z,28.95
2023-02-11T03:51:38.591Z,30.95
2023-02-11T03:52:40.437Z,30.93
2023-02-11T03:53:46.551Z,29.65
2023-02-11T03:54:53.735Z,28.83
2023-02-11T03:56:00.104Z,28.27
2023-02-11T03:57:02.870Z,28.23
2023-02-11T03:58:05.100Z,28.17
2023-02-11T03:59:08.071Z,28.50
2023-02-11T04:00:11.510Z,26.63
2023-02-11T04:01:13.392Z,28.17
2023-02-11T04:02:14.999Z,29.25
2023-02-11T04:03:16.765Z,28.88
2023-02-11T04:04:18.932Z,30.63
2023-02-11T04:05:20.911Z,29.85
2023-02-11T04:06:22.482Z,28.90
2023-02-11T04:07:24.188Z,28.58
2023-02-11T04:08:25.803Z,29.85
2023-02-11T04:09:27.437Z,28.85
2023-02-11T04:10:29.369Z,27.40
2023-02-11T04:11:31.090Z,26.85
2023-02-11T04:12:34.959Z,29.70
2023-02-11T04:13:36.603Z,28.80
2023-02-11T04:14:38.528Z,28.90
2023-02-11T04:15:40.149Z,29.05
2023-02-11T04:16:41.920Z,29.75
2023-02-11T04:17:44.783Z,29.85
2023-02-11T04:18:46.357Z,27.75
2023-02-11T04:19:47.916Z,30.20
2023-02-11T04:20:50.732Z,27.05
2023-02-11T04:21:52.308Z,29.65
2023-02-11T04:22:53.835Z,29.33
2023-02-11T04:23:55.390Z,27.77
2023-02-11T04:24:58.358Z,27.35
2023-02-11T04:26:01.209Z,27.50
2023-02-11T04:27:03.088Z,29.33
2023-02-11T04:28:04.655Z,27.75
2023-02-11T04:29:08.757Z,27.55
2023-02-11T04:30:11.085Z,28.80
2023-02-11T04:31:12.978Z,27.98
2023-02-11T04:32:15.201Z,28.15
2023-02-11T04:33:17.099Z,28.13
2023-02-11T04:34:18.775Z,28.50
2023-02-11T04:35:20.804Z,28.42
2023-02-11T04:36:23.693Z,27.17
2023-02-11T04:37:25.273Z,27.08
2023-02-11T04:38:26.835Z,28.52
2023-02-11T04:39:28.400Z,28.92
2023-02-11T04:40:29.939Z,29.03
2023-02-11T04:41:32.070Z,27.67
2023-02-11T04:42:35.908Z,28.42
2023-02-11T04:43:38.182Z,29.45
2023-02-11T04:44:39.811Z,28.00
2023-02-11T04:45:41.814Z,26.77
2023-02-11T04:46:43.526Z,29.13
2023-02-11T04:47:45.102Z,27.67
2023-02-11T04:48:46.953Z,27.15
2023-02-11T04:49:48.633Z,29.00
2023-02-11T04:50:50.465Z,29.23
2023-02-11T04:51:54.328Z,29.58
2023-02-11T04:52:56.069Z,28.60
2023-02-11T04:53:57.733Z,29.65
2023-02-11T04:54:59.257Z,27.95
2023-02-11T04:56:00.889Z,28.60
2023-02-11T04:57:02.750Z,25.63
2023-02-11T04:58:04.347Z,28.88
2023-02-11T04:59:07.692Z,28.48
2023-02-11T05:00:10.787Z,28.00
2023-02-11T05:01:15.330Z,28.27
2023-02-11T05:02:16.960Z,30.63
2023-02-11T05:03:18.786Z,30.80
2023-02-11T05:04:20.411Z,28.20
2023-02-11T05:05:22.173Z,27.73
2023-02-11T05:06:24.175Z,29.20
2023-02-11T05:07:25.768Z,28.55
2023-02-11T05:08:28.490Z,30.15
2023-02-11T05:09:31.444Z,28.02
2023-02-11T05:10:35.931Z,29.17
2023-02-11T05:11:39.388Z,27.90
2023-02-11T05:12:41.863Z,28.25
2023-02-11T05:13:44.021Z,27.75
2023-02-11T05:14:45.692Z,27.10
2023-02-11T05:15:49.958Z,26.33
2023-02-11T05:16:52.084Z,27.30
2023-02-11T05:17:55.062Z,28.80
2023-02-11T05:18:56.767Z,27.08
2023-02-11T05:19:58.305Z,25.50
2023-02-11T05:20:59.852Z,27.40
2023-02-11T05:22:03.413Z,27.10
2023-02-11T05:23:05.881Z,29.00
2023-02-11T05:24:10.006Z,27.92
2023-02-11T05:25:11.589Z,27.27
2023-02-11T05:26:13.974Z,26.52
2023-02-11T05:27:15.544Z,29.55
2023-02-11T05:28:18.229Z,27.75
2023-02-11T05:29:20.370Z,26.70
2023-02-11T05:30:22.077Z,29.90
2023-02-11T05:31:23.661Z,28.67
2023-02-11T05:32:25.843Z,27.17
2023-02-11T05:33:28.007Z,28.33
2023-02-11T05:34:29.661Z,27.23
2023-02-11T05:35:31.261Z,26.58
2023-02-11T05:36:35.551Z,30.45
2023-02-11T05:37:37.149Z,28.60
2023-02-11T05:38:39.700Z,31.20
2023-02-11T05:39:41.501Z,29.23
2023-02-11T05:40:43.433Z,28.92
2023-02-11T05:41:45.801Z,30.20
2023-02-11T05:42:48.678Z,28.00
2023-02-11T05:43:54.732Z,30.17
2023-02-11T05:44:56.314Z,30.75
2023-02-11T05:45:57.959Z,29.30
2023-02-11T05:46:59.537Z,29.80
2023-02-11T05:48:01.327Z,30.48
2023-02-11T05:49:03.376Z,30.50
2023-02-11T05:50:07.737Z,31.20
2023-02-11T05:51:10.724Z,31.08
2023-02-11T05:52:12.280Z,28.92
2023-02-11T05:53:13.957Z,27.63
2023-02-11T05:54:16.131Z,28.40
2023-02-11T05:55:17.933Z,29.00
2023-02-11T05:56:19.719Z,29.30
2023-02-11T05:57:22.319Z,27.77
2023-02-11T05:58:25.114Z,28.75
2023-02-11T05:59:26.653Z,28.35
2023-02-11T06:00:28.926Z,26.45
2023-02-11T06:01:31.688Z,30.50
2023-02-11T06:02:36.325Z,27.45
2023-02-11T06:03:39.104Z,29.02
2023-02-11T06:04:41.522Z,27.55
2023-02-11T06:05:44.595Z,29.95
2023-02-11T06:06:46.902Z,27.95
2023-02-11T06:07:49.988Z,27.35
2023-02-11T06:08:51.632Z,26.95
2023-02-11T06:09:53.264Z,28.55
2023-02-11T06:10:54.996Z,29.55
2023-02-11T06:11:56.583Z,29.67
2023-02-11T06:12:58.123Z,29.27
2023-02-11T06:13:59.710Z,28.58
2023-02-11T06:15:01.598Z,28.48
2023-02-11T06:16:03.506Z,28.70
2023-02-11T06:17:05.153Z,28.33
2023-02-11T06:18:08.199Z,28.48
2023-02-11T06:19:09.782Z,27.30
2023-02-11T06:20:11.665Z,27.42
2023-02-11T06:21:13.313Z,28.58
2023-02-11T06:22:15.196Z,29.20
2023-02-11T06:23:17.059Z,26.08
2023-02-11T06:24:33.142Z,28.13
2023-02-11T06:25:40.712Z,30.45
2023-02-11T06:26:42.483Z,28.58
2023-02-11T06:27:44.078Z,29.05
2023-02-11T06:28:46.206Z,30.48
2023-02-11T06:29:48.265Z,28.55
2023-02-11T06:30:49.917Z,28.20
2023-02-11T06:31:51.624Z,27.30
2023-02-11T06:32:53.323Z,29.33
2023-02-11T06:33:57.333Z,28.60
2023-02-11T06:35:00.626Z,29.10
2023-02-11T06:36:03.702Z,31.58
2023-02-11T06:37:05.749Z,29.77
2023-02-11T06:38:09.694Z,33.00
2023-02-11T06:39:12.695Z,39.38
2023-02-11T06:40:14.454Z,41.83
2023-02-11T06:41:20.112Z,42.22
2023-02-11T06:42:22.023Z,43.58
2023-02-11T06:43:23.606Z,45.10
2023-02-11T06:44:25.213Z,41.47
2023-02-11T06:45:26.800Z,34.58
2023-02-11T06:46:28.524Z,44.97
2023-02-11T06:47:30.127Z,45.05
2023-02-11T06:48:31.740Z,54.22
2023-02-11T06:49:35.594Z,55.45
2023-02-11T06:50:38.310Z,34.95
2023-02-11T06:51:40.315Z,45.25
2023-02-11T06:52:41.968Z,47.05
2023-02-11T06:53:48.039Z,59.90
2023-02-11T06:54:49.604Z,44.63
2023-02-11T06:55:51.418Z,59.97
2023-02-11T06:56:53.906Z,58.55
2023-02-11T06:57:55.499Z,52.08
2023-02-11T06:58:57.792Z,38.55
2023-02-11T06:59:59.578Z,40.30
2023-02-11T07:01:06.845Z,29.60
2023-02-11T07:02:10.610Z,47.55
2023-02-11T07:03:12.429Z,51.65
2023-02-11T07:04:15.910Z,42.72
2023-02-11T07:05:20.036Z,46.53
2023-02-11T07:06:25.206Z,37.03
2023-02-11T07:07:27.877Z,36.95
2023-02-11T07:08:29.552Z,38.50
2023-02-11T07:09:32.315Z,31.80
2023-02-11T07:10:36.935Z,32.83
2023-02-11T07:11:39.371Z,31.52
2023-02-11T07:12:41.351Z,33.08
2023-02-11T07:13:43.052Z,31.20
2023-02-11T07:14:44.692Z,31.73
2023-02-11T07:15:46.331Z,29.85
2023-02-11T07:16:48.125Z,30.63
2023-02-11T07:17:50.088Z,32.78
2023-02-11T07:18:51.749Z,31.23
2023-02-11T07:19:53.349Z,32.00
2023-02-11T07:20:54.930Z,31.10
2023-02-11T07:21:56.800Z,30.27
2023-02-11T07:23:00.213Z,30.77
2023-02-11T07:24:02.829Z,31.73
2023-02-11T07:25:04.795Z,29.40
2023-02-11T07:26:11.838Z,30.83
2023-02-11T07:27:13.759Z,31.38
2023-02-11T07:28:15.344Z,32.20
2023-02-11T07:29:17.111Z,31.20
2023-02-11T07:30:20.543Z,30.80
2023-02-11T07:31:27.213Z,28.47
2023-02-11T07:32:28.916Z,30.92
2023-02-11T07:33:30.538Z,31.10
2023-02-11T07:34:32.227Z,30.65
2023-02-11T07:35:33.972Z,32.28
2023-02-11T07:36:36.993Z,31.15
2023-02-11T07:37:42.742Z,29.33
2023-02-11T07:38:44.750Z,31.85
2023-02-11T07:39:47.159Z,31.33
2023-02-11T07:40:48.855Z,32.33
2023-02-11T07:41:50.542Z,30.60
2023-02-11T07:42:52.933Z,30.50
2023-02-11T07:43:55.233Z,29.67
2023-02-11T07:44:59.668Z,30.35
2023-02-11T07:46:11.314Z,30.08
2023-02-11T07:47:12.856Z,31.50
2023-02-11T07:48:15.992Z,29.27
2023-02-11T07:49:17.972Z,31.63
2023-02-11T07:50:20.785Z,32.45
2023-02-11T07:51:27.956Z,31.02
2023-02-11T07:52:30.816Z,33.63
2023-02-11T07:53:32.409Z,30.67
2023-02-11T07:54:34.069Z,29.98
2023-02-11T07:55:36.019Z,29.70
2023-02-11T07:56:38.036Z,107.50
2023-02-11T07:57:41.340Z,109.40
2023-02-11T07:58:43.281Z,84.65
2023-02-11T07:59:44.871Z,100.47
2023-02-11T08:00:46.558Z,132.10
2023-02-11T08:01:50.522Z,119.65
2023-02-11T08:02:52.146Z,106.85
2023-02-11T08:03:55.305Z,63.38
2023-02-11T08:04:56.897Z,98.35
2023-02-11T08:06:01.998Z,53.78
2023-02-11T08:07:03.661Z,46.08
2023-02-11T08:08:05.478Z,43.40
2023-02-11T08:09:11.721Z,47.65
2023-02-11T08:10:13.332Z,44.85
2023-02-11T08:11:18.572Z,49.70
2023-02-11T08:12:21.739Z,42.47
2023-02-11T08:13:23.699Z,40.20
2023-02-11T08:14:27.293Z,37.72
2023-02-11T08:15:28.936Z,34.78
2023-02-11T08:16:35.774Z,33.38
2023-02-11T08:17:37.392Z,29.63
2023-02-11T08:18:38.973Z,28.95
2023-02-11T08:19:40.553Z,28.90
2023-02-11T08:20:42.121Z,29.35
2023-02-11T08:21:45.264Z,30.85
2023-02-11T08:22:47.665Z,33.08
2023-02-11T08:23:49.867Z,32.50
2023-02-11T08:24:52.511Z,31.70
2023-02-11T08:25:55.907Z,30.92
2023-02-11T08:26:57.649Z,30.45
2023-02-11T08:28:00.506Z,32.10
2023-02-11T08:29:07.609Z,30.58
2023-02-11T08:30:09.975Z,28.52
2023-02-11T08:31:20.700Z,28.30
2023-02-11T08:32:25.761Z,32.97
2023-02-11T08:33:27.364Z,31.35
2023-02-11T08:34:30.415Z,32.08
2023-02-11T08:35:34.340Z,31.90
2023-02-11T08:36:42.503Z,31.65
2023-02-11T08:37:44.124Z,29.30
2023-02-11T08:38:46.266Z,32.03
2023-02-11T08:39:48.096Z,30.15
2023-02-11T08:40:50.049Z,31.80
2023-02-11T08:41:54.285Z,30.25
2023-02-11T08:42:55.928Z,30.77
2023-02-11T08:43:57.498Z,30.13
2023-02-11T08:44:59.875Z,27.52
2023-02-11T08:46:02.632Z,29.02
2023-02-11T08:47:06.886Z,28.95
2023-02-11T08:48:11.595Z,28.25
2023-02-11T08:49:14.134Z,31.25
2023-02-11T08:50:15.841Z,28.65
2023-02-11T08:51:20.781Z,28.10
2023-02-11T08:52:22.639Z,27.20
2023-02-11T08:53:24.731Z,30.90
2023-02-11T08:54:26.606Z,28.50
2023-02-11T08:55:29.188Z,29.33
2023-02-11T08:56:32.475Z,30.85
2023-02-11T08:57:34.396Z,33.45
2023-02-11T08:58:36.099Z,29.83
2023-02-11T08:59:40.096Z,30.23
2023-02-11T09:00:44.678Z,33.55
2023-02-11T09:01:47.882Z,33.53
2023-02-11T09:02:49.865Z,39.85
2023-02-11T09:03:54.792Z,30.58
2023-02-11T09:04:56.996Z,33.67
2023-02-11T09:05:59.779Z,31.88
2023-02-11T09:07:01.469Z,31.75
2023-02-11T09:08:03.015Z,33.05
2023-02-11T09:09:05.024Z,35.10
2023-02-11T09:10:06.814Z,33.55
2023-02-11T09:11:10.277Z,32.00
2023-02-11T09:12:12.128Z,30.45
2023-02-11T09:13:13.988Z,29.73
2023-02-11T09:14:25.235Z,30.17
2023-02-11T09:15:28.487Z,33.05
2023-02-11T09:16:32.696Z,27.75
2023-02-11T09:17:35.706Z,28.20
2023-02-11T09:18:37.661Z,30.70
2023-02-11T09:19:39.627Z,30.48
2023-02-11T09:20:41.195Z,27.10
2023-02-11T09:21:42.921Z,27.00
2023-02-11T09:22:44.564Z,27.00
2023-02-11T09:23:50.366Z,28.65
2023-02-11T09:24:53.286Z,29.20
2023-02-11T09:25:57.254Z,29.58
2023-02-11T09:26:58.859Z,32.53
2023-02-11T09:28:01.081Z,29.50
2023-02-11T09:29:17.007Z,28.45
2023-02-11T09:30:19.735Z,29.85
2023-02-11T09:31:27.186Z,29.20
2023-02-11T09:32:31.262Z,30.35
2023-02-11T09:33:33.887Z,31.98
2023-02-11T09:34:35.464Z,29.38
2023-02-11T09:35:38.135Z,28.10
2023-02-11T09:36:40.839Z,29.30
2023-02-11T09:37:43.734Z,28.98
2023-02-11T09:38:46.678Z,27.15
2023-02-11T09:39:48.468Z,29.63
2023-02-11T09:40:50.670Z,30.15
2023-02-11T09:42:10.520Z,29.27
2023-02-11T09:43:22.141Z,27.73
2023-02-11T09:44:29.561Z,28.88
2023-02-11T09:45:37.508Z,28.77
2023-02-11T09:46:42.673Z,28.50
2023-02-11T09:47:51.525Z,27.27
2023-02-11T09:48:56.133Z,29.05
2023-02-11T09:50:06.908Z,30.05
2023-02-11T09:51:42.255Z,28.65
2023-02-11T09:52:58.725Z,28.63
2023-02-11T09:54:08.247Z,33.88
2023-02-11T09:55:39.468Z,29.67
2023-02-11T09:56:43.542Z,27.98
2023-02-11T09:57:45.290Z,30.48
2023-02-11T09:58:47.727Z,30.83
2023-02-11T09:59:49.470Z,28.92
2023-02-11T10:01:39.900Z,29.38
2023-02-11T10:03:03.791Z,30.50
2023-02-11T10:05:09.709Z,29.90
2023-02-11T10:06:50.144Z,30.83
2023-02-11T10:08:13.270Z,29.50
2023-02-11T10:09:42.477Z,28.98
2023-02-11T10:11:06.298Z,34.80
2023-02-11T10:12:20.567Z,29.48
2023-02-11T10:13:43.719Z,28.05
2023-02-11T10:15:12.975Z,29.58
2023-02-11T10:16:37.773Z,27.58
2023-02-11T10:18:04.096Z,27.15
2023-02-11T10:19:23.937Z,26.23
2023-02-11T10:20:39.777Z,25.88
2023-02-11T10:22:00.261Z,27.20
2023-02-11T10:25:00.290Z,27.33
2023-02-11T10:26:04.853Z,30.23
2023-02-11T10:27:16.449Z,33.47
2023-02-11T10:28:23.354Z,30.45
2023-02-11T10:29:49.337Z,29.95
2023-02-11T10:31:28.007Z,27.45
2023-02-11T10:32:47.741Z,24.77
2023-02-11T10:34:01.384Z,28.67
2023-02-11T10:35:15.226Z,29.52
2023-02-11T10:36:18.753Z,25.92
2023-02-11T10:37:20.368Z,25.33
2023-02-11T10:38:22.123Z,25.13
2023-02-11T10:39:26.984Z,30.77
2023-02-11T10:40:31.051Z,31.45
2023-02-11T10:41:42.968Z,24.67
2023-02-11T10:42:49.280Z,23.90
2023-02-11T10:43:52.028Z,24.08
2023-02-11T10:45:03.780Z,23.23
2023-02-11T10:46:06.209Z,22.08
2023-02-11T10:47:23.609Z,21.98
2023-02-11T10:48:43.230Z,23.27
2023-02-11T10:49:46.718Z,21.63
2023-02-11T10:50:48.674Z,22.75
2023-02-11T10:52:07.762Z,25.20
2023-02-11T10:53:13.748Z,21.48
2023-02-11T10:54:21.811Z,21.27
2023-02-11T10:55:27.939Z,20.42
2023-02-11T10:56:54.808Z,22.92
2023-02-11T10:58:00.452Z,21.77
2023-02-11T10:59:23.075Z,23.15
2023-02-11T11:00:40.963Z,22.13
2023-02-11T11:01:54.345Z,22.65
2023-02-11T11:02:59.657Z,22.95
2023-02-11T11:04:01.394Z,20.67
2023-02-11T11:05:19.176Z,22.10
2023-02-11T11:06:35.761Z,23.05
2023-02-11T11:07:37.641Z,21.77
2023-02-11T11:08:43.427Z,21.38
2023-02-11T11:09:48.346Z,21.15
2023-02-11T11:11:05.990Z,19.33
2023-02-11T11:12:43.962Z,20.27
2023-02-11T11:14:00.466Z,19.13
2023-02-11T11:15:10.846Z,20.05
2023-02-11T11:16:12.746Z,19.45
2023-02-11T11:17:19.007Z,17.27
2023-02-11T11:18:23.276Z,19.35
2023-02-11T11:19:26.088Z,19.65
2023-02-11T11:20:33.944Z,19.48
2023-02-11T11:21:45.179Z,19.35
2023-02-11T11:22:48.724Z,17.75
2023-02-11T11:24:18.212Z,18.13
2023-02-11T11:25:29.765Z,19.80
2023-02-11T11:26:44.539Z,19.13
2023-02-11T11:27:50.680Z,17.80
2023-02-11T11:28:57.731Z,17.58
2023-02-11T11:30:01.562Z,17.67
2023-02-11T11:31:03.377Z,18.98
2023-02-11T11:32:30.823Z,18.77
2023-02-11T11:33:36.048Z,19.60
2023-02-11T11:34:42.998Z,21.13
2023-02-11T11:35:57.529Z,19.83
2023-02-11T11:37:12.711Z,19.65
2023-02-11T11:38:15.435Z,21.27
2023-02-11T11:39:33.021Z,19.17
2023-02-11T11:40:35.450Z,19.42
2023-02-11T11:41:37.696Z,20.70
2023-02-11T11:42:42.466Z,23.27
2023-02-11T11:44:11.907Z,19.58
2023-02-11T11:45:18.782Z,18.38
2023-02-11T11:46:30.607Z,20.38
2023-02-11T11:47:55.913Z,19.35
2023-02-11T11:49:23.627Z,18.02
2023-02-11T11:50:35.237Z,20.15
2023-02-11T11:51:39.955Z,22.38
2023-02-11T11:52:56.527Z,19.15
2023-02-11T11:54:04.349Z,18.50
2023-02-11T11:55:20.995Z,19.63
2023-02-11T11:56:26.332Z,21.63
2023-02-11T11:57:29.899Z,24.10
2023-02-11T11:58:35.805Z,21.90
2023-02-11T11:59:38.829Z,21.15
2023-02-11T12:00:52.709Z,24.33
2023-02-11T12:02:40.100Z,21.05
2023-02-11T12:04:15.665Z,22.63
2023-02-11T12:05:42.159Z,21.52
2023-02-11T12:07:09.893Z,20.92
2023-02-11T12:08:24.671Z,20.25
2023-02-11T12:10:14.637Z,19.00
2023-02-11T12:11:24.067Z,19.92
2023-02-11T12:12:56.273Z,20.77
2023-02-11T12:15:06.671Z,18.67
2023-02-11T12:16:17.359Z,21.42
2023-02-11T12:17:56.899Z,20.75
2023-02-11T12:19:43.020Z,21.25
2023-02-11T12:21:03.878Z,19.00
2023-02-11T12:22:32.439Z,20.40
2023-02-11T12:24:11.371Z,19.13
2023-02-11T12:25:26.843Z,17.88
2023-02-11T12:26:36.296Z,21.90
2023-02-11T12:27:54.771Z,21.35
2023-02-11T12:29:17.821Z,19.73
2023-02-11T12:30:41.022Z,21.73
2023-02-11T21:57:21.377Z,15.45
2023-02-11T21:58:23.290Z,13.93
2023-02-11T21:59:25.352Z,13.18
2023-02-11T22:00:27.202Z,13.45
2023-02-11T22:01:33.130Z,14.40
2023-02-11T22:02:34.773Z,13.68
2023-02-11T22:03:36.468Z,12.77
2023-02-11T22:04:38.717Z,13.25
2023-02-11T22:59:59.064Z,19.63
2023-02-11T23:01:01.023Z,16.23
2023-02-11T23:02:02.726Z,17.92
2023-02-11T23:03:05.582Z,16.90
2023-02-11T23:04:13.367Z,15.95
2023-02-11T23:05:15.406Z,18.08
2023-02-11T23:06:18.301Z,20.15
2023-02-11T23:07:20.101Z,17.48
2023-02-11T23:08:21.661Z,20.92
2023-02-11T23:09:23.360Z,17.60
2023-02-11T23:10:25.422Z,17.40
2023-02-11T23:11:30.358Z,18.63
2023-02-11T23:12:32.025Z,17.20
2023-02-11T23:13:37.460Z,17.25
2023-02-11T23:14:39.729Z,15.68
2023-02-11T23:15:43.635Z,16.25
2023-02-11T23:16:45.414Z,20.10
2023-02-11T23:17:47.078Z,15.45
2023-02-11T23:18:50.211Z,16.25
2023-02-11T23:19:51.936Z,17.38
2023-02-11T23:20:56.165Z,18.67
2023-02-11T23:21:58.732Z,17.08
2023-02-11T23:23:00.463Z,21.40
2023-02-11T23:24:08.125Z,20.23
2023-02-11T23:25:09.759Z,18.67
2023-02-11T23:26:14.516Z,16.60
2023-02-11T23:27:17.457Z,21.23
2023-02-11T23:28:20.165Z,19.92
2023-02-11T23:29:21.779Z,22.25
2023-02-11T23:30:23.735Z,20.20
2023-02-11T23:31:31.051Z,18.30
2023-02-11T23:32:32.887Z,20.20
2023-02-11T23:33:36.767Z,20.23
2023-02-11T23:34:39.460Z,16.90
2023-02-11T23:35:41.415Z,20.45
2023-02-11T23:36:44.486Z,19.90
2023-02-11T23:37:46.198Z,15.20
2023-02-11T23:38:48.757Z,14.57
2023-02-11T23:39:50.577Z,19.77
2023-02-11T23:40:52.153Z,19.17
2023-02-11T23:41:58.950Z,15.35
2023-02-11T23:43:00.572Z,14.10
2023-02-11T23:44:02.224Z,15.07
2023-02-11T23:45:05.689Z,15.00
2023-02-11T23:46:10.796Z,18.98
2023-02-11T23:47:13.667Z,17.25
2023-02-11T23:48:15.707Z,15.15
2023-02-11T23:49:18.393Z,19.10
2023-02-11T23:50:23.492Z,16.25
2023-02-11T23:51:25.413Z,17.48
2023-02-11T23:52:27.440Z,17.65
2023-02-11T23:53:29.434Z,18.73
2023-02-11T23:54:31.572Z,19.45
2023-02-11T23:55:40.276Z,16.98
2023-02-11T23:56:44.890Z,19.08
2023-02-11T23:57:47.932Z,16.15
2023-02-11T23:58:52.308Z,17.33
2023-02-11T23:59:55.351Z,15.68
